sensor_id;sensor_type;location;lat;lon;timestamp;temperature;humidity
3560;DHT22;1794;48.804;9.156;2022-08-19T00:00:49;20.60;51.90
3560;DHT22;1794;48.804;9.156;2022-08-19T00:03:16;20.80;35.20
3560;DHT22;1794;48.804;9.156;2022-08-19T00:05:43;20.90;27.30
3560;DHT22;1794;48.804;9.156;2022-08-19T00:08:12;20.80;34.80
3560;DHT22;1794;48.804;9.156;2022-08-19T00:10:39;20.80;29.40
3560;DHT22;1794;48.804;9.156;2022-08-19T00:13:05;20.80;33.60
3560;DHT22;1794;48.804;9.156;2022-08-19T00:15:32;20.80;34.20
3560;DHT22;1794;48.804;9.156;2022-08-19T00:17:59;20.70;41.90
3560;DHT22;1794;48.804;9.156;2022-08-19T00:20:26;20.70;50.70
3560;DHT22;1794;48.804;9.156;2022-08-19T00:22:53;20.70;46.40
3560;DHT22;1794;48.804;9.156;2022-08-19T00:25:21;20.70;45.70
3560;DHT22;1794;48.804;9.156;2022-08-19T00:27:48;20.80;49.00
3560;DHT22;1794;48.804;9.156;2022-08-19T00:30:15;20.90;31.20
3560;DHT22;1794;48.804;9.156;2022-08-19T00:32:42;20.70;40.90
3560;DHT22;1794;48.804;9.156;2022-08-19T00:35:09;20.50;72.90
3560;DHT22;1794;48.804;9.156;2022-08-19T00:37:37;20.60;60.30
3560;DHT22;1794;48.804;9.156;2022-08-19T00:40:09;20.70;45.80
3560;DHT22;1794;48.804;9.156;2022-08-19T00:42:38;20.70;41.40
3560;DHT22;1794;48.804;9.156;2022-08-19T00:45:09;20.70;42.50
3560;DHT22;1794;48.804;9.156;2022-08-19T00:47:37;20.60;49.50
3560;DHT22;1794;48.804;9.156;2022-08-19T00:50:05;20.70;36.30
3560;DHT22;1794;48.804;9.156;2022-08-19T00:52:33;20.70;46.80
3560;DHT22;1794;48.804;9.156;2022-08-19T00:55:02;20.80;31.30
3560;DHT22;1794;48.804;9.156;2022-08-19T00:57:34;20.80;27.70
3560;DHT22;1794;48.804;9.156;2022-08-19T01:00:06;21.00;19.10
3560;DHT22;1794;48.804;9.156;2022-08-19T01:02:34;20.80;42.20
3560;DHT22;1794;48.804;9.156;2022-08-19T01:05:05;20.60;54.00
3560;DHT22;1794;48.804;9.156;2022-08-19T01:07:33;20.50;60.70
3560;DHT22;1794;48.804;9.156;2022-08-19T01:10:00;20.50;61.10
3560;DHT22;1794;48.804;9.156;2022-08-19T01:12:27;20.50;56.60
3560;DHT22;1794;48.804;9.156;2022-08-19T01:14:55;20.40;58.50
3560;DHT22;1794;48.804;9.156;2022-08-19T01:17:23;20.50;59.50
3560;DHT22;1794;48.804;9.156;2022-08-19T01:19:50;20.50;67.00
3560;DHT22;1794;48.804;9.156;2022-08-19T01:22:25;20.40;64.60
3560;DHT22;1794;48.804;9.156;2022-08-19T01:24:53;20.50;55.50
3560;DHT22;1794;48.804;9.156;2022-08-19T01:27:20;20.50;59.20
3560;DHT22;1794;48.804;9.156;2022-08-19T01:29:46;20.40;72.70
3560;DHT22;1794;48.804;9.156;2022-08-19T01:32:16;20.50;56.20
3560;DHT22;1794;48.804;9.156;2022-08-19T01:34:44;20.40;67.40
3560;DHT22;1794;48.804;9.156;2022-08-19T01:37:13;20.40;70.80
3560;DHT22;1794;48.804;9.156;2022-08-19T01:39:42;20.40;71.60
3560;DHT22;1794;48.804;9.156;2022-08-19T01:42:09;20.40;58.90
3560;DHT22;1794;48.804;9.156;2022-08-19T01:44:37;20.40;65.70
3560;DHT22;1794;48.804;9.156;2022-08-19T01:47:06;20.40;63.30
3560;DHT22;1794;48.804;9.156;2022-08-19T01:49:33;20.50;60.40
3560;DHT22;1794;48.804;9.156;2022-08-19T01:52:00;20.70;46.20
3560;DHT22;1794;48.804;9.156;2022-08-19T01:54:27;20.50;59.40
3560;DHT22;1794;48.804;9.156;2022-08-19T01:57:00;20.40;66.20
3560;DHT22;1794;48.804;9.156;2022-08-19T01:59:27;20.40;73.60
3560;DHT22;1794;48.804;9.156;2022-08-19T02:01:54;20.40;79.00
3560;DHT22;1794;48.804;9.156;2022-08-19T02:04:21;20.40;69.90
3560;DHT22;1794;48.804;9.156;2022-08-19T02:06:48;20.30;93.10
3560;DHT22;1794;48.804;9.156;2022-08-19T02:09:15;20.20;93.30
3560;DHT22;1794;48.804;9.156;2022-08-19T02:11:42;20.20;97.00
3560;DHT22;1794;48.804;9.156;2022-08-19T02:14:10;20.30;98.50
3560;DHT22;1794;48.804;9.156;2022-08-19T02:16:38;20.30;90.10
3560;DHT22;1794;48.804;9.156;2022-08-19T02:19:05;20.40;91.00
3560;DHT22;1794;48.804;9.156;2022-08-19T02:21:34;20.40;87.90
3560;DHT22;1794;48.804;9.156;2022-08-19T02:24:01;20.50;70.00
3560;DHT22;1794;48.804;9.156;2022-08-19T02:26:28;20.50;93.40
3560;DHT22;1794;48.804;9.156;2022-08-19T02:28:55;20.80;42.20
3560;DHT22;1794;48.804;9.156;2022-08-19T02:31:25;20.80;41.80
3560;DHT22;1794;48.804;9.156;2022-08-19T02:33:53;20.60;60.20
3560;DHT22;1794;48.804;9.156;2022-08-19T02:36:21;20.40;80.30
3560;DHT22;1794;48.804;9.156;2022-08-19T02:38:48;20.70;50.50
3560;DHT22;1794;48.804;9.156;2022-08-19T02:41:18;20.60;56.00
3560;DHT22;1794;48.804;9.156;2022-08-19T02:43:45;20.50;86.50
3560;DHT22;1794;48.804;9.156;2022-08-19T02:46:14;20.60;69.50
3560;DHT22;1794;48.804;9.156;2022-08-19T02:48:47;20.80;42.10
3560;DHT22;1794;48.804;9.156;2022-08-19T02:51:18;21.00;26.40
3560;DHT22;1794;48.804;9.156;2022-08-19T02:53:45;21.00;38.40
3560;DHT22;1794;48.804;9.156;2022-08-19T02:56:12;20.90;24.10
3560;DHT22;1794;48.804;9.156;2022-08-19T02:58:39;20.60;55.50
3560;DHT22;1794;48.804;9.156;2022-08-19T03:01:06;20.50;58.00
3560;DHT22;1794;48.804;9.156;2022-08-19T03:03:33;20.70;48.60
3560;DHT22;1794;48.804;9.156;2022-08-19T03:06:10;20.50;74.70
3560;DHT22;1794;48.804;9.156;2022-08-19T03:08:39;20.50;68.70
3560;DHT22;1794;48.804;9.156;2022-08-19T03:11:06;20.60;75.00
3560;DHT22;1794;48.804;9.156;2022-08-19T03:13:32;20.70;47.90
3560;DHT22;1794;48.804;9.156;2022-08-19T03:15:59;20.80;41.50
3560;DHT22;1794;48.804;9.156;2022-08-19T03:18:26;20.70;49.20
3560;DHT22;1794;48.804;9.156;2022-08-19T03:20:53;20.50;94.40
3560;DHT22;1794;48.804;9.156;2022-08-19T03:23:22;20.30;99.90
3560;DHT22;1794;48.804;9.156;2022-08-19T03:25:50;20.10;99.90
3560;DHT22;1794;48.804;9.156;2022-08-19T03:28:18;19.90;99.90
3560;DHT22;1794;48.804;9.156;2022-08-19T03:30:56;19.90;99.90
3560;DHT22;1794;48.804;9.156;2022-08-19T03:33:28;20.00;99.90
3560;DHT22;1794;48.804;9.156;2022-08-19T03:36:07;20.10;99.90
3560;DHT22;1794;48.804;9.156;2022-08-19T03:38:36;20.00;99.90
3560;DHT22;1794;48.804;9.156;2022-08-19T03:41:04;19.60;99.90
3560;DHT22;1794;48.804;9.156;2022-08-19T03:43:34;19.50;99.90
3560;DHT22;1794;48.804;9.156;2022-08-19T03:46:02;19.40;99.90
3560;DHT22;1794;48.804;9.156;2022-08-19T03:48:30;19.40;99.90
3560;DHT22;1794;48.804;9.156;2022-08-19T03:50:57;19.50;99.90
3560;DHT22;1794;48.804;9.156;2022-08-19T03:53:25;19.50;99.90
3560;DHT22;1794;48.804;9.156;2022-08-19T03:55:53;19.40;99.90
3560;DHT22;1794;48.804;9.156;2022-08-19T03:58:20;19.40;99.90
3560;DHT22;1794;48.804;9.156;2022-08-19T04:00:47;19.30;99.90
3560;DHT22;1794;48.804;9.156;2022-08-19T04:03:15;19.30;99.90
3560;DHT22;1794;48.804;9.156;2022-08-19T04:05:44;19.50;99.90
3560;DHT22;1794;48.804;9.156;2022-08-19T04:08:11;19.60;99.90
3560;DHT22;1794;48.804;9.156;2022-08-19T04:10:38;19.70;99.90
3560;DHT22;1794;48.804;9.156;2022-08-19T04:13:07;19.80;99.90
3560;DHT22;1794;48.804;9.156;2022-08-19T04:15:39;20.00;99.90
3560;DHT22;1794;48.804;9.156;2022-08-19T04:18:07;19.70;99.90
3560;DHT22;1794;48.804;9.156;2022-08-19T04:20:39;19.90;99.90
3560;DHT22;1794;48.804;9.156;2022-08-19T04:23:06;19.90;99.90
3560;DHT22;1794;48.804;9.156;2022-08-19T04:25:36;19.90;99.90
3560;DHT22;1794;48.804;9.156;2022-08-19T04:28:03;20.10;99.90
3560;DHT22;1794;48.804;9.156;2022-08-19T04:30:37;20.20;98.60
3560;DHT22;1794;48.804;9.156;2022-08-19T04:33:04;20.30;86.90
3560;DHT22;1794;48.804;9.156;2022-08-19T04:35:35;20.00;99.90
3560;DHT22;1794;48.804;9.156;2022-08-19T04:38:02;19.90;99.90
3560;DHT22;1794;48.804;9.156;2022-08-19T04:40:28;19.90;99.90
3560;DHT22;1794;48.804;9.156;2022-08-19T04:43:12;20.10;99.90
3560;DHT22;1794;48.804;9.156;2022-08-19T04:45:42;20.10;99.90
3560;DHT22;1794;48.804;9.156;2022-08-19T04:48:09;20.10;99.90
3560;DHT22;1794;48.804;9.156;2022-08-19T04:50:36;20.00;99.90
3560;DHT22;1794;48.804;9.156;2022-08-19T04:53:06;20.10;99.90
3560;DHT22;1794;48.804;9.156;2022-08-19T04:55:32;20.10;99.90
3560;DHT22;1794;48.804;9.156;2022-08-19T04:58:01;20.10;93.90
3560;DHT22;1794;48.804;9.156;2022-08-19T05:00:27;19.90;99.90
3560;DHT22;1794;48.804;9.156;2022-08-19T05:02:55;19.90;99.90
3560;DHT22;1794;48.804;9.156;2022-08-19T05:05:22;19.90;99.90
3560;DHT22;1794;48.804;9.156;2022-08-19T05:07:49;19.90;99.90
3560;DHT22;1794;48.804;9.156;2022-08-19T05:10:15;19.80;99.90
3560;DHT22;1794;48.804;9.156;2022-08-19T05:12:42;20.00;99.90
3560;DHT22;1794;48.804;9.156;2022-08-19T05:15:09;20.20;97.30
3560;DHT22;1794;48.804;9.156;2022-08-19T05:17:36;20.40;84.10
3560;DHT22;1794;48.804;9.156;2022-08-19T05:20:05;20.10;99.90
3560;DHT22;1794;48.804;9.156;2022-08-19T05:22:50;20.00;99.90
3560;DHT22;1794;48.804;9.156;2022-08-19T05:25:19;20.20;97.80
3560;DHT22;1794;48.804;9.156;2022-08-19T05:27:47;20.30;92.10
3560;DHT22;1794;48.804;9.156;2022-08-19T05:30:15;20.20;97.00
3560;DHT22;1794;48.804;9.156;2022-08-19T05:32:42;20.30;99.60
3560;DHT22;1794;48.804;9.156;2022-08-19T05:35:11;20.50;75.30
3560;DHT22;1794;48.804;9.156;2022-08-19T05:37:38;20.20;99.90
3560;DHT22;1794;48.804;9.156;2022-08-19T05:40:06;20.20;99.20
3560;DHT22;1794;48.804;9.156;2022-08-19T05:42:33;20.30;99.90
3560;DHT22;1794;48.804;9.156;2022-08-19T05:45:00;20.40;99.20
3560;DHT22;1794;48.804;9.156;2022-08-19T05:47:27;20.70;69.40
3560;DHT22;1794;48.804;9.156;2022-08-19T05:49:53;20.70;58.80
3560;DHT22;1794;48.804;9.156;2022-08-19T05:52:21;20.60;75.20
3560;DHT22;1794;48.804;9.156;2022-08-19T05:54:48;20.40;90.50
3560;DHT22;1794;48.804;9.156;2022-08-19T05:57:16;20.60;81.30
3560;DHT22;1794;48.804;9.156;2022-08-19T05:59:43;20.60;66.70
3560;DHT22;1794;48.804;9.156;2022-08-19T06:02:11;20.40;96.90
3560;DHT22;1794;48.804;9.156;2022-08-19T06:04:38;20.50;77.70
3560;DHT22;1794;48.804;9.156;2022-08-19T06:07:07;20.20;99.90
3560;DHT22;1794;48.804;9.156;2022-08-19T06:09:36;20.20;99.90
3560;DHT22;1794;48.804;9.156;2022-08-19T06:12:03;20.30;99.90
3560;DHT22;1794;48.804;9.156;2022-08-19T06:14:32;20.70;76.90
3560;DHT22;1794;48.804;9.156;2022-08-19T06:16:59;20.80;52.30
3560;DHT22;1794;48.804;9.156;2022-08-19T06:19:28;20.80;46.70
3560;DHT22;1794;48.804;9.156;2022-08-19T06:21:55;20.70;56.00
3560;DHT22;1794;48.804;9.156;2022-08-19T06:24:25;20.50;76.10
3560;DHT22;1794;48.804;9.156;2022-08-19T06:26:55;20.60;79.00
3560;DHT22;1794;48.804;9.156;2022-08-19T06:29:25;20.50;80.90
3560;DHT22;1794;48.804;9.156;2022-08-19T06:31:54;20.60;80.70
3560;DHT22;1794;48.804;9.156;2022-08-19T06:34:22;20.80;54.70
3560;DHT22;1794;48.804;9.156;2022-08-19T06:36:51;20.90;47.10
3560;DHT22;1794;48.804;9.156;2022-08-19T06:39:20;21.00;37.30
3560;DHT22;1794;48.804;9.156;2022-08-19T06:41:48;20.80;46.40
3560;DHT22;1794;48.804;9.156;2022-08-19T06:44:17;20.70;81.10
3560;DHT22;1794;48.804;9.156;2022-08-19T06:46:45;20.80;77.60
3560;DHT22;1794;48.804;9.156;2022-08-19T06:49:11;20.60;99.90
3560;DHT22;1794;48.804;9.156;2022-08-19T06:51:40;20.80;93.20
3560;DHT22;1794;48.804;9.156;2022-08-19T06:54:09;20.60;99.90
3560;DHT22;1794;48.804;9.156;2022-08-19T06:56:36;20.50;99.90
3560;DHT22;1794;48.804;9.156;2022-08-19T06:59:06;20.40;99.90
3560;DHT22;1794;48.804;9.156;2022-08-19T07:01:36;19.90;99.90
3560;DHT22;1794;48.804;9.156;2022-08-19T07:04:04;19.70;99.90
3560;DHT22;1794;48.804;9.156;2022-08-19T07:06:31;19.90;99.90
3560;DHT22;1794;48.804;9.156;2022-08-19T07:08:58;20.10;99.90
3560;DHT22;1794;48.804;9.156;2022-08-19T07:11:25;20.20;99.90
3560;DHT22;1794;48.804;9.156;2022-08-19T07:13:52;20.00;99.90
3560;DHT22;1794;48.804;9.156;2022-08-19T07:16:20;20.00;99.90
3560;DHT22;1794;48.804;9.156;2022-08-19T07:18:49;20.00;99.90
3560;DHT22;1794;48.804;9.156;2022-08-19T07:21:19;20.00;99.90
3560;DHT22;1794;48.804;9.156;2022-08-19T07:23:47;20.30;99.90
3560;DHT22;1794;48.804;9.156;2022-08-19T07:26:18;20.40;99.90
3560;DHT22;1794;48.804;9.156;2022-08-19T07:28:46;20.20;99.90
3560;DHT22;1794;48.804;9.156;2022-08-19T07:31:15;20.30;99.90
3560;DHT22;1794;48.804;9.156;2022-08-19T07:33:44;20.60;98.10
3560;DHT22;1794;48.804;9.156;2022-08-19T07:36:14;20.70;99.50
3560;DHT22;1794;48.804;9.156;2022-08-19T07:38:44;20.60;99.90
3560;DHT22;1794;48.804;9.156;2022-08-19T07:41:15;20.60;99.60
3560;DHT22;1794;48.804;9.156;2022-08-19T07:43:42;20.60;99.90
3560;DHT22;1794;48.804;9.156;2022-08-19T07:46:10;20.60;96.80
3560;DHT22;1794;48.804;9.156;2022-08-19T07:48:40;20.70;88.10
3560;DHT22;1794;48.804;9.156;2022-08-19T07:51:08;20.80;84.20
3560;DHT22;1794;48.804;9.156;2022-08-19T07:53:37;20.90;62.00
3560;DHT22;1794;48.804;9.156;2022-08-19T07:56:04;20.90;52.90
3560;DHT22;1794;48.804;9.156;2022-08-19T07:58:34;20.80;64.90
3560;DHT22;1794;48.804;9.156;2022-08-19T08:01:01;20.80;70.30
3560;DHT22;1794;48.804;9.156;2022-08-19T08:03:28;20.60;97.90
3560;DHT22;1794;48.804;9.156;2022-08-19T08:06:09;20.70;83.60
3560;DHT22;1794;48.804;9.156;2022-08-19T08:08:55;20.60;72.70
3560;DHT22;1794;48.804;9.156;2022-08-19T08:11:49;20.70;79.40
3560;DHT22;1794;48.804;9.156;2022-08-19T08:14:18;20.60;74.70
3560;DHT22;1794;48.804;9.156;2022-08-19T08:16:45;20.80;61.30
3560;DHT22;1794;48.804;9.156;2022-08-19T08:19:12;20.80;50.00
3560;DHT22;1794;48.804;9.156;2022-08-19T08:21:41;20.50;86.00
3560;DHT22;1794;48.804;9.156;2022-08-19T08:24:10;20.40;90.20
3560;DHT22;1794;48.804;9.156;2022-08-19T08:26:38;20.30;99.90
3560;DHT22;1794;48.804;9.156;2022-08-19T08:29:05;20.40;97.50
3560;DHT22;1794;48.804;9.156;2022-08-19T08:31:32;20.60;81.80
3560;DHT22;1794;48.804;9.156;2022-08-19T08:34:00;20.80;62.20
3560;DHT22;1794;48.804;9.156;2022-08-19T08:36:26;20.80;79.20
3560;DHT22;1794;48.804;9.156;2022-08-19T08:38:53;20.90;52.00
3560;DHT22;1794;48.804;9.156;2022-08-19T08:41:31;21.10;33.00
3560;DHT22;1794;48.804;9.156;2022-08-19T08:44:01;21.00;47.70
3560;DHT22;1794;48.804;9.156;2022-08-19T08:46:35;20.70;99.90
3560;DHT22;1794;48.804;9.156;2022-08-19T08:49:24;20.50;99.90
3560;DHT22;1794;48.804;9.156;2022-08-19T08:51:59;20.60;99.90
3560;DHT22;1794;48.804;9.156;2022-08-19T08:54:31;20.70;99.90
3560;DHT22;1794;48.804;9.156;2022-08-19T08:57:00;20.40;99.90
3560;DHT22;1794;48.804;9.156;2022-08-19T08:59:31;20.40;99.90
3560;DHT22;1794;48.804;9.156;2022-08-19T09:02:01;20.70;99.90
3560;DHT22;1794;48.804;9.156;2022-08-19T09:04:28;20.60;99.90
3560;DHT22;1794;48.804;9.156;2022-08-19T09:07:18;20.60;99.90
3560;DHT22;1794;48.804;9.156;2022-08-19T09:09:49;20.60;99.90
3560;DHT22;1794;48.804;9.156;2022-08-19T09:12:24;20.70;99.90
3560;DHT22;1794;48.804;9.156;2022-08-19T09:14:56;20.80;99.90
3560;DHT22;1794;48.804;9.156;2022-08-19T09:17:30;20.90;99.90
3560;DHT22;1794;48.804;9.156;2022-08-19T09:20:00;21.20;94.20
3560;DHT22;1794;48.804;9.156;2022-08-19T09:22:32;21.40;87.90
3560;DHT22;1794;48.804;9.156;2022-08-19T09:24:59;21.70;57.50
3560;DHT22;1794;48.804;9.156;2022-08-19T09:27:29;21.80;41.90
3560;DHT22;1794;48.804;9.156;2022-08-19T09:29:58;21.90;51.30
3560;DHT22;1794;48.804;9.156;2022-08-19T09:32:24;21.90;41.70
3560;DHT22;1794;48.804;9.156;2022-08-19T09:34:52;22.00;35.60
3560;DHT22;1794;48.804;9.156;2022-08-19T09:37:20;22.00;27.30
3560;DHT22;1794;48.804;9.156;2022-08-19T09:39:47;22.10;13.40
3560;DHT22;1794;48.804;9.156;2022-08-19T09:42:13;22.20;14.40
3560;DHT22;1794;48.804;9.156;2022-08-19T09:44:42;22.40;7.40
3560;DHT22;1794;48.804;9.156;2022-08-19T09:47:11;22.50;1.00
3560;DHT22;1794;48.804;9.156;2022-08-19T09:49:38;22.60;1.00
3560;DHT22;1794;48.804;9.156;2022-08-19T09:52:06;22.50;1.00
3560;DHT22;1794;48.804;9.156;2022-08-19T09:54:33;22.60;1.00
3560;DHT22;1794;48.804;9.156;2022-08-19T09:57:00;22.60;1.00
3560;DHT22;1794;48.804;9.156;2022-08-19T09:59:27;22.20;16.10
3560;DHT22;1794;48.804;9.156;2022-08-19T10:01:55;22.40;1.00
3560;DHT22;1794;48.804;9.156;2022-08-19T10:04:22;22.40;1.00
3560;DHT22;1794;48.804;9.156;2022-08-19T10:07:09;22.30;1.00
3560;DHT22;1794;48.804;9.156;2022-08-19T10:09:35;22.40;1.00
3560;DHT22;1794;48.804;9.156;2022-08-19T10:12:03;22.50;1.00
3560;DHT22;1794;48.804;9.156;2022-08-19T10:14:31;22.50;1.00
3560;DHT22;1794;48.804;9.156;2022-08-19T10:16:59;22.60;1.00
3560;DHT22;1794;48.804;9.156;2022-08-19T10:19:28;22.60;1.00
3560;DHT22;1794;48.804;9.156;2022-08-19T10:21:57;22.60;1.00
3560;DHT22;1794;48.804;9.156;2022-08-19T10:24:24;22.60;1.00
3560;DHT22;1794;48.804;9.156;2022-08-19T10:26:53;22.50;1.00
3560;DHT22;1794;48.804;9.156;2022-08-19T10:29:19;22.50;1.00
3560;DHT22;1794;48.804;9.156;2022-08-19T10:31:46;22.70;1.00
3560;DHT22;1794;48.804;9.156;2022-08-19T10:34:15;22.80;1.00
3560;DHT22;1794;48.804;9.156;2022-08-19T10:36:43;22.90;1.00
3560;DHT22;1794;48.804;9.156;2022-08-19T10:39:10;23.20;1.00
3560;DHT22;1794;48.804;9.156;2022-08-19T10:41:38;23.00;1.00
3560;DHT22;1794;48.804;9.156;2022-08-19T10:44:08;23.20;1.00
3560;DHT22;1794;48.804;9.156;2022-08-19T10:46:37;23.10;1.00
3560;DHT22;1794;48.804;9.156;2022-08-19T10:49:07;23.40;1.00
3560;DHT22;1794;48.804;9.156;2022-08-19T10:51:37;23.80;1.00
3560;DHT22;1794;48.804;9.156;2022-08-19T10:54:22;23.90;1.00
3560;DHT22;1794;48.804;9.156;2022-08-19T10:57:09;23.60;1.00
3560;DHT22;1794;48.804;9.156;2022-08-19T10:59:35;23.20;1.00
3560;DHT22;1794;48.804;9.156;2022-08-19T11:02:04;23.10;1.00
3560;DHT22;1794;48.804;9.156;2022-08-19T11:04:31;23.30;1.00
3560;DHT22;1794;48.804;9.156;2022-08-19T11:06:59;23.10;1.00
3560;DHT22;1794;48.804;9.156;2022-08-19T11:09:27;23.20;1.00
3560;DHT22;1794;48.804;9.156;2022-08-19T11:11:54;23.10;1.00
3560;DHT22;1794;48.804;9.156;2022-08-19T11:14:22;23.20;1.00
3560;DHT22;1794;48.804;9.156;2022-08-19T11:16:51;23.30;1.00
3560;DHT22;1794;48.804;9.156;2022-08-19T11:19:18;23.70;1.00
3560;DHT22;1794;48.804;9.156;2022-08-19T11:21:47;24.00;1.00
3560;DHT22;1794;48.804;9.156;2022-08-19T11:24:18;24.20;1.00
3560;DHT22;1794;48.804;9.156;2022-08-19T11:26:47;24.40;1.00
3560;DHT22;1794;48.804;9.156;2022-08-19T11:29:16;24.40;1.00
3560;DHT22;1794;48.804;9.156;2022-08-19T11:31:45;24.50;1.00
3560;DHT22;1794;48.804;9.156;2022-08-19T11:34:15;24.40;1.00
3560;DHT22;1794;48.804;9.156;2022-08-19T11:36:44;24.50;1.00
3560;DHT22;1794;48.804;9.156;2022-08-19T11:39:12;24.70;1.00
3560;DHT22;1794;48.804;9.156;2022-08-19T11:41:41;24.80;1.00
3560;DHT22;1794;48.804;9.156;2022-08-19T11:44:08;24.50;1.00
3560;DHT22;1794;48.804;9.156;2022-08-19T11:46:37;24.60;1.00
3560;DHT22;1794;48.804;9.156;2022-08-19T11:49:04;24.70;1.00
3560;DHT22;1794;48.804;9.156;2022-08-19T11:51:33;24.60;1.00
3560;DHT22;1794;48.804;9.156;2022-08-19T11:54:00;24.60;1.00
3560;DHT22;1794;48.804;9.156;2022-08-19T11:56:27;24.80;1.00
3560;DHT22;1794;48.804;9.156;2022-08-19T11:58:55;24.80;1.00
3560;DHT22;1794;48.804;9.156;2022-08-19T12:01:25;24.80;1.00
3560;DHT22;1794;48.804;9.156;2022-08-19T12:03:53;24.90;1.00
3560;DHT22;1794;48.804;9.156;2022-08-19T12:06:22;24.70;1.00
3560;DHT22;1794;48.804;9.156;2022-08-19T12:08:52;24.60;1.00
3560;DHT22;1794;48.804;9.156;2022-08-19T12:11:19;24.50;1.00
3560;DHT22;1794;48.804;9.156;2022-08-19T12:13:46;24.60;1.00
3560;DHT22;1794;48.804;9.156;2022-08-19T12:16:17;24.60;1.00
3560;DHT22;1794;48.804;9.156;2022-08-19T12:18:44;24.50;1.00
3560;DHT22;1794;48.804;9.156;2022-08-19T12:21:11;24.60;1.00
3560;DHT22;1794;48.804;9.156;2022-08-19T12:23:39;24.80;1.00
3560;DHT22;1794;48.804;9.156;2022-08-19T12:26:06;24.50;1.00
3560;DHT22;1794;48.804;9.156;2022-08-19T12:28:33;24.60;1.00
3560;DHT22;1794;48.804;9.156;2022-08-19T12:31:00;24.70;1.00
3560;DHT22;1794;48.804;9.156;2022-08-19T12:33:29;24.70;1.00
3560;DHT22;1794;48.804;9.156;2022-08-19T12:36:00;24.60;1.00
3560;DHT22;1794;48.804;9.156;2022-08-19T12:38:27;24.50;1.00
3560;DHT22;1794;48.804;9.156;2022-08-19T12:40:54;24.40;1.00
3560;DHT22;1794;48.804;9.156;2022-08-19T12:43:21;24.30;1.00
3560;DHT22;1794;48.804;9.156;2022-08-19T12:45:48;24.40;1.00
3560;DHT22;1794;48.804;9.156;2022-08-19T12:48:15;24.30;1.00
3560;DHT22;1794;48.804;9.156;2022-08-19T12:50:44;24.40;1.00
3560;DHT22;1794;48.804;9.156;2022-08-19T12:53:12;24.70;1.00
3560;DHT22;1794;48.804;9.156;2022-08-19T12:55:39;24.90;1.00
3560;DHT22;1794;48.804;9.156;2022-08-19T12:58:06;25.20;1.00
3560;DHT22;1794;48.804;9.156;2022-08-19T13:00:34;25.30;1.00
3560;DHT22;1794;48.804;9.156;2022-08-19T13:03:00;24.50;1.00
3560;DHT22;1794;48.804;9.156;2022-08-19T13:05:29;24.00;1.00
3560;DHT22;1794;48.804;9.156;2022-08-19T13:07:59;23.70;1.00
3560;DHT22;1794;48.804;9.156;2022-08-19T13:10:28;23.50;1.00
3560;DHT22;1794;48.804;9.156;2022-08-19T13:12:57;23.30;1.00
3560;DHT22;1794;48.804;9.156;2022-08-19T13:15:25;23.30;1.00
3560;DHT22;1794;48.804;9.156;2022-08-19T13:17:54;23.00;1.00
3560;DHT22;1794;48.804;9.156;2022-08-19T13:20:21;22.80;1.00
3560;DHT22;1794;48.804;9.156;2022-08-19T13:22:48;22.70;3.70
3560;DHT22;1794;48.804;9.156;2022-08-19T13:25:17;23.00;1.00
3560;DHT22;1794;48.804;9.156;2022-08-19T13:27:46;23.00;1.00
3560;DHT22;1794;48.804;9.156;2022-08-19T13:30:14;22.80;1.00
3560;DHT22;1794;48.804;9.156;2022-08-19T13:32:59;22.40;63.40
3560;DHT22;1794;48.804;9.156;2022-08-19T13:35:40;22.10;99.90
3560;DHT22;1794;48.804;9.156;2022-08-19T13:38:07;21.90;99.90
3560;DHT22;1794;48.804;9.156;2022-08-19T13:40:36;21.70;99.90
3560;DHT22;1794;48.804;9.156;2022-08-19T13:43:04;21.60;99.90
3560;DHT22;1794;48.804;9.156;2022-08-19T13:45:33;21.50;99.90
3560;DHT22;1794;48.804;9.156;2022-08-19T13:48:01;21.50;99.90
3560;DHT22;1794;48.804;9.156;2022-08-19T13:50:33;21.50;99.90
3560;DHT22;1794;48.804;9.156;2022-08-19T13:53:00;21.40;99.90
3560;DHT22;1794;48.804;9.156;2022-08-19T13:55:28;21.50;99.90
3560;DHT22;1794;48.804;9.156;2022-08-19T13:57:58;21.10;99.90
3560;DHT22;1794;48.804;9.156;2022-08-19T14:00:27;20.90;99.90
3560;DHT22;1794;48.804;9.156;2022-08-19T14:02:55;20.70;99.90
3560;DHT22;1794;48.804;9.156;2022-08-19T14:05:24;20.60;99.90
3560;DHT22;1794;48.804;9.156;2022-08-19T14:07:51;20.50;99.90
3560;DHT22;1794;48.804;9.156;2022-08-19T14:10:19;20.40;99.90
3560;DHT22;1794;48.804;9.156;2022-08-19T14:12:46;20.50;99.90
3560;DHT22;1794;48.804;9.156;2022-08-19T14:15:14;20.50;99.90
3560;DHT22;1794;48.804;9.156;2022-08-19T14:17:45;20.50;99.90
3560;DHT22;1794;48.804;9.156;2022-08-19T14:20:14;20.70;99.90
3560;DHT22;1794;48.804;9.156;2022-08-19T14:22:42;20.80;99.90
3560;DHT22;1794;48.804;9.156;2022-08-19T14:25:11;20.90;99.90
3560;DHT22;1794;48.804;9.156;2022-08-19T14:27:39;21.10;99.90
3560;DHT22;1794;48.804;9.156;2022-08-19T14:30:07;21.20;99.90
3560;DHT22;1794;48.804;9.156;2022-08-19T14:32:36;21.20;99.90
3560;DHT22;1794;48.804;9.156;2022-08-19T14:35:04;21.10;99.90
3560;DHT22;1794;48.804;9.156;2022-08-19T14:37:33;21.10;99.90
3560;DHT22;1794;48.804;9.156;2022-08-19T14:40:00;21.40;99.90
3560;DHT22;1794;48.804;9.156;2022-08-19T14:42:27;21.40;99.90
3560;DHT22;1794;48.804;9.156;2022-08-19T14:44:57;21.60;99.90
3560;DHT22;1794;48.804;9.156;2022-08-19T14:47:24;21.80;99.90
3560;DHT22;1794;48.804;9.156;2022-08-19T14:49:53;21.70;99.90
3560;DHT22;1794;48.804;9.156;2022-08-19T14:52:20;21.80;99.90
3560;DHT22;1794;48.804;9.156;2022-08-19T14:54:47;22.00;99.90
3560;DHT22;1794;48.804;9.156;2022-08-19T14:57:14;22.00;99.90
3560;DHT22;1794;48.804;9.156;2022-08-19T14:59:41;21.80;99.90
3560;DHT22;1794;48.804;9.156;2022-08-19T15:02:08;21.90;99.90
3560;DHT22;1794;48.804;9.156;2022-08-19T15:04:35;22.10;99.90
3560;DHT22;1794;48.804;9.156;2022-08-19T15:07:03;22.10;99.90
3560;DHT22;1794;48.804;9.156;2022-08-19T15:09:30;22.40;99.90
3560;DHT22;1794;48.804;9.156;2022-08-19T15:11:57;22.50;99.90
3560;DHT22;1794;48.804;9.156;2022-08-19T15:14:26;22.70;99.90
3560;DHT22;1794;48.804;9.156;2022-08-19T15:16:59;22.60;94.30
3560;DHT22;1794;48.804;9.156;2022-08-19T15:19:25;22.50;93.50
3560;DHT22;1794;48.804;9.156;2022-08-19T15:21:53;22.50;99.90
3560;DHT22;1794;48.804;9.156;2022-08-19T15:24:22;23.10;67.40
3560;DHT22;1794;48.804;9.156;2022-08-19T15:26:51;23.00;41.20
3560;DHT22;1794;48.804;9.156;2022-08-19T15:29:17;22.60;93.70
3560;DHT22;1794;48.804;9.156;2022-08-19T15:31:44;22.60;90.90
3560;DHT22;1794;48.804;9.156;2022-08-19T15:34:11;22.60;78.60
3560;DHT22;1794;48.804;9.156;2022-08-19T15:36:38;22.60;70.10
3560;DHT22;1794;48.804;9.156;2022-08-19T15:39:05;22.60;48.90
3560;DHT22;1794;48.804;9.156;2022-08-19T15:41:36;22.50;83.50
3560;DHT22;1794;48.804;9.156;2022-08-19T15:44:06;22.70;73.60
3560;DHT22;1794;48.804;9.156;2022-08-19T15:46:36;22.90;59.10
3560;DHT22;1794;48.804;9.156;2022-08-19T15:49:04;22.80;26.70
3560;DHT22;1794;48.804;9.156;2022-08-19T15:51:32;22.80;37.70
3560;DHT22;1794;48.804;9.156;2022-08-19T15:54:02;23.00;33.90
3560;DHT22;1794;48.804;9.156;2022-08-19T15:56:28;23.10;36.70
3560;DHT22;1794;48.804;9.156;2022-08-19T15:59:11;23.10;42.10
3560;DHT22;1794;48.804;9.156;2022-08-19T16:01:55;22.90;70.10
3560;DHT22;1794;48.804;9.156;2022-08-19T16:04:39;22.70;99.90
3560;DHT22;1794;48.804;9.156;2022-08-19T16:07:23;22.50;99.90
3560;DHT22;1794;48.804;9.156;2022-08-19T16:09:50;22.70;99.90
3560;DHT22;1794;48.804;9.156;2022-08-19T16:12:16;22.90;99.90
3560;DHT22;1794;48.804;9.156;2022-08-19T16:14:45;23.00;99.90